Time;durP1;ratioP1;P1;durP2;ratioP2;P2;SDS_P1;SDS_P2;PMS_P1;PMS_P2;Temp;Humidity;BMP_temperature;BMP_pressure;BME280_temperature;BME280_humidity;BME280_pressure;Samples;Min_cycle;Max_cycle;Signal;HPM_P1;HPM_P2
2022/07/23 00:00:47;;;;;;;6.75;6.07;;;28.50;96.70;;;;;;5083897;28;20043;-73
2022/07/23 00:03:15;;;;;;;8.55;5.85;;;28.50;96.70;;;;;;5101476;28;20040;-74
2022/07/23 00:05:43;;;;;;;7.43;6.30;;;28.50;96.70;;;;;;5070248;28;20045;-73
2022/07/23 00:08:11;;;;;;;7.13;5.93;;;28.50;96.70;;;;;;5086204;28;20051;-73
2022/07/23 00:10:41;;;;;;;11.25;6.80;;;28.50;96.70;;;;;;5085544;28;20123;-73
2022/07/23 00:13:09;;;;;;;8.80;6.55;;;28.60;96.70;;;;;;5091181;28;20036;-73
2022/07/23 00:15:38;;;;;;;9.05;6.28;;;28.50;96.70;;;;;;5084628;28;20157;-73
2022/07/23 00:18:06;;;;;;;7.22;6.20;;;28.50;96.70;;;;;;5087518;28;20067;-74
2022/07/23 00:20:34;;;;;;;8.45;6.40;;;28.40;96.70;;;;;;5090869;28;20047;-74
2022/07/23 00:23:02;;;;;;;7.15;6.45;;;28.40;96.70;;;;;;5073422;28;20083;-74
2022/07/23 00:25:30;;;;;;;6.90;6.18;;;28.50;96.70;;;;;;5073291;28;20048;-73
2022/07/23 00:28:00;;;;;;;7.55;6.70;;;28.40;96.70;;;;;;5087758;28;20101;-74
2022/07/23 00:30:30;;;;;;;10.73;6.43;;;28.40;96.70;;;;;;5076129;28;20568;-74
2022/07/23 00:33:02;;;;;;;7.50;5.57;;;28.30;96.70;;;;;;5091031;28;20509;-74
2022/07/23 00:35:39;;;;;;;6.75;5.40;;;28.20;96.70;;;;;;5085739;28;20032;-74
2022/07/23 00:38:09;;;;;;;9.20;6.03;;;28.10;96.70;;;;;;5076495;28;20048;-74
2022/07/23 00:40:38;;;;;;;5.78;5.22;;;28.10;96.70;;;;;;5086869;28;20543;-74
2022/07/23 00:43:07;;;;;;;8.75;5.57;;;28.20;96.70;;;;;;5095847;28;20055;-73
2022/07/23 00:45:35;;;;;;;6.93;4.82;;;28.20;96.70;;;;;;5070868;28;20059;-74
2022/07/23 00:48:04;;;;;;;8.57;5.68;;;28.10;96.70;;;;;;5097399;28;20044;-74
2022/07/23 00:50:33;;;;;;;8.13;5.85;;;28.10;96.70;;;;;;5090280;28;20052;-74
2022/07/23 00:53:00;;;;;;;8.63;6.30;;;28.10;96.70;;;;;;5077880;28;20048;-75
2022/07/23 00:55:28;;;;;;;7.55;6.50;;;28.10;96.70;;;;;;5091194;28;20075;-74
2022/07/23 00:57:58;;;;;;;8.32;6.05;;;28.00;96.70;;;;;;5096522;28;20064;-74
2022/07/23 01:00:26;;;;;;;8.02;6.07;;;28.00;96.70;;;;;;5086370;28;20035;-74
2022/07/23 01:02:56;;;;;;;10.85;6.38;;;27.90;96.70;;;;;;5091398;28;20040;-75
2022/07/23 01:05:28;;;;;;;6.72;5.32;;;27.90;96.70;;;;;;5073775;28;20040;-75
2022/07/23 01:07:56;;;;;;;7.78;5.78;;;27.90;96.70;;;;;;5090506;28;20177;-74
2022/07/23 01:10:30;;;;;;;8.27;5.78;;;27.90;96.70;;;;;;5076157;28;20047;-74
2022/07/23 01:13:00;;;;;;;7.68;6.45;;;27.80;96.70;;;;;;5090168;28;20456;-74
2022/07/23 01:15:28;;;;;;;6.60;5.97;;;27.70;96.70;;;;;;5091744;28;20054;-75
2022/07/23 01:17:56;;;;;;;6.30;5.70;;;27.70;96.70;;;;;;5086385;28;20048;-75
2022/07/23 01:20:24;;;;;;;7.35;6.30;;;27.70;96.70;;;;;;5091713;28;20032;-74
2022/07/23 01:22:55;;;;;;;7.03;5.82;;;27.60;96.70;;;;;;5089889;28;20117;-74
2022/07/23 01:25:24;;;;;;;8.40;6.00;;;27.60;96.70;;;;;;5085806;28;20048;-74
2022/07/23 01:27:56;;;;;;;6.65;5.57;;;27.60;96.70;;;;;;5092932;28;20048;-74
2022/07/23 01:30:24;;;;;;;7.95;5.43;;;27.50;96.70;;;;;;5082590;28;20052;-74
2022/07/23 01:32:52;;;;;;;7.88;5.63;;;27.50;96.70;;;;;;5075850;28;20470;-74
2022/07/23 01:35:20;;;;;;;6.55;5.82;;;27.40;96.70;;;;;;5073017;28;20131;-74
2022/07/23 01:37:49;;;;;;;8.32;6.18;;;27.40;96.70;;;;;;5070083;28;20390;-74
2022/07/23 01:40:20;;;;;;;6.35;5.20;;;27.40;96.70;;;;;;5090578;28;20048;-74
2022/07/23 01:42:50;;;;;;;8.18;5.70;;;27.30;96.70;;;;;;5071073;28;20497;-74
2022/07/23 01:45:19;;;;;;;7.03;5.55;;;27.30;96.70;;;;;;5076223;28;20039;-74
2022/07/23 01:47:51;;;;;;;7.65;5.93;;;27.20;96.70;;;;;;5070131;28;20050;-74
2022/07/23 01:50:19;;;;;;;5.97;5.38;;;27.20;96.70;;;;;;5093462;28;20047;-74
2022/07/23 01:53:16;;;;;;;6.10;5.57;;;27.30;96.70;;;;;;5073889;28;20127;-75
2022/07/23 01:55:46;;;;;;;6.45;5.60;;;27.40;96.70;;;;;;5086724;28;20147;-74
2022/07/23 01:58:14;;;;;;;7.95;6.20;;;27.40;96.70;;;;;;5070356;28;20068;-74
2022/07/23 02:00:42;;;;;;;7.13;5.68;;;27.40;96.70;;;;;;5080462;28;20049;-74
2022/07/23 02:03:10;;;;;;;5.70;5.05;;;27.30;96.70;;;;;;5084603;28;20100;-74
2022/07/23 02:05:38;;;;;;;8.00;6.35;;;27.40;96.70;;;;;;5079412;28;20048;-74
2022/07/23 02:08:06;;;;;;;7.22;5.70;;;27.40;96.70;;;;;;5082544;28;20520;-74
2022/07/23 02:10:36;;;;;;;8.65;6.32;;;27.30;96.70;;;;;;5083318;28;20486;-74
2022/07/23 02:13:06;;;;;;;8.15;5.80;;;27.30;96.70;;;;;;5090362;28;20187;-74
2022/07/23 02:15:34;;;;;;;7.60;6.13;;;27.30;96.70;;;;;;5086719;28;20097;-74
2022/07/23 02:18:02;;;;;;;7.95;6.85;;;27.20;96.70;;;;;;5091339;28;20606;-74
2022/07/23 02:20:31;;;;;;;8.30;6.85;;;27.20;96.70;;;;;;5077907;28;20037;-74
2022/07/23 02:22:59;;;;;;;9.27;6.80;;;27.10;96.70;;;;;;5091021;28;20043;-74
2022/07/23 02:25:28;;;;;;;9.13;7.18;;;27.10;96.70;;;;;;5090533;28;20044;-74
2022/07/23 02:28:01;;;;;;;11.65;6.82;;;27.10;96.70;;;;;;5069235;28;20532;-74
2022/07/23 02:30:30;;;;;;;7.50;6.43;;;27.20;96.70;;;;;;5079342;28;20052;-75
2022/07/23 02:32:58;;;;;;;10.10;6.97;;;27.20;96.70;;;;;;5087294;28;20048;-74
2022/07/23 02:35:26;;;;;;;7.53;6.63;;;27.20;96.70;;;;;;5089351;28;20498;-74
2022/07/23 02:37:57;;;;;;;7.72;6.68;;;27.10;96.70;;;;;;5071994;28;20056;-74
2022/07/23 02:40:27;;;;;;;14.30;7.90;;;27.10;96.70;;;;;;5083972;28;20472;-74
2022/07/23 02:42:54;;;;;;;8.23;6.53;;;27.10;96.70;;;;;;5090168;28;20045;-74
2022/07/23 02:45:23;;;;;;;8.75;7.05;;;27.00;96.70;;;;;;5084507;28;20055;-75
2022/07/23 02:47:54;;;;;;;8.60;7.35;;;27.10;96.70;;;;;;5089024;28;20060;-74
2022/07/23 02:50:22;;;;;;;10.18;7.18;;;27.10;96.70;;;;;;5067061;28;20502;-75
2022/07/23 02:52:53;;;;;;;8.55;7.05;;;27.10;96.70;;;;;;5090301;28;20121;-75
2022/07/23 02:55:24;;;;;;;9.95;7.85;;;27.00;96.70;;;;;;5084325;28;20051;-74
2022/07/23 02:57:53;;;;;;;9.05;7.25;;;27.00;96.70;;;;;;5095422;28;20071;-74
2022/07/23 03:00:21;;;;;;;9.63;7.10;;;27.10;96.70;;;;;;5066041;28;20562;-74
2022/07/23 03:02:49;;;;;;;9.15;7.60;;;27.10;96.70;;;;;;5091258;28;20043;-76
2022/07/23 03:05:18;;;;;;;8.43;7.50;;;27.10;96.70;;;;;;5081934;28;20082;-76
2022/07/23 03:07:47;;;;;;;8.77;7.40;;;27.10;96.70;;;;;;5076325;28;20052;-75
2022/07/23 03:10:14;;;;;;;8.93;7.00;;;27.10;96.70;;;;;;5088254;28;20055;-73
2022/07/23 03:12:44;;;;;;;10.15;7.95;;;27.10;96.70;;;;;;5085417;28;20584;-74
2022/07/23 03:15:12;;;;;;;8.90;7.18;;;27.00;96.70;;;;;;5085940;28;20504;-74
2022/07/23 03:17:41;;;;;;;8.70;7.90;;;26.90;96.70;;;;;;5086174;28;20070;-74
2022/07/23 03:20:10;;;;;;;9.32;7.40;;;26.90;96.70;;;;;;5088798;28;20040;-74
2022/07/23 03:22:40;;;;;;;8.88;7.97;;;26.90;96.70;;;;;;5086310;28;20059;-74
2022/07/23 03:25:09;;;;;;;10.77;7.57;;;26.90;96.70;;;;;;5087673;28;20055;-74
2022/07/23 03:27:37;;;;;;;8.70;7.57;;;26.90;96.70;;;;;;5090782;28;20123;-74
2022/07/23 03:30:06;;;;;;;9.48;7.63;;;26.80;96.70;;;;;;5088303;28;20050;-74
2022/07/23 03:32:35;;;;;;;10.13;7.60;;;26.80;96.70;;;;;;5070999;28;20140;-74
2022/07/23 03:35:03;;;;;;;8.65;7.65;;;26.80;96.70;;;;;;5067237;28;20056;-74
2022/07/23 03:37:35;;;;;;;8.00;7.18;;;26.80;96.70;;;;;;5090092;28;20065;-74
2022/07/23 03:40:06;;;;;;;8.73;7.10;;;26.80;96.70;;;;;;5069012;28;20044;-74
2022/07/23 03:42:34;;;;;;;8.00;7.20;;;26.80;96.70;;;;;;5095553;28;20160;-74
2022/07/23 03:45:03;;;;;;;8.98;7.25;;;26.80;96.70;;;;;;5088269;28;20055;-74
2022/07/23 03:47:32;;;;;;;8.95;8.00;;;26.80;96.70;;;;;;5082585;28;20074;-74
2022/07/23 03:50:00;;;;;;;10.07;8.27;;;26.80;96.70;;;;;;5086929;28;20138;-76
2022/07/23 03:52:28;;;;;;;11.55;7.40;;;26.90;96.70;;;;;;5067842;28;20062;-77
2022/07/23 03:54:56;;;;;;;8.68;6.85;;;26.80;96.70;;;;;;5094805;28;20044;-75
2022/07/23 03:57:26;;;;;;;10.32;7.68;;;26.70;96.70;;;;;;5083556;28;20128;-75
2022/07/23 03:59:54;;;;;;;8.05;7.28;;;26.70;96.70;;;;;;5090990;28;20071;-76
2022/07/23 04:02:22;;;;;;;14.25;7.88;;;26.70;96.70;;;;;;5065617;28;20035;-76
2022/07/23 04:04:50;;;;;;;11.15;8.30;;;26.70;96.70;;;;;;5083498;28;20055;-76
2022/07/23 04:07:18;;;;;;;10.52;8.00;;;26.60;96.70;;;;;;5083091;28;20062;-76
2022/07/23 04:09:47;;;;;;;8.65;7.75;;;26.60;96.70;;;;;;5085361;28;20048;-76
2022/07/23 04:12:15;;;;;;;9.13;8.07;;;26.60;96.70;;;;;;5069918;28;20093;-75
2022/07/23 04:14:45;;;;;;;10.77;7.75;;;26.50;96.70;;;;;;5089086;28;20505;-74
2022/07/23 04:17:13;;;;;;;10.32;7.85;;;26.40;96.70;;;;;;5072195;28;20043;-74
2022/07/23 04:19:43;;;;;;;9.52;7.85;;;26.40;96.70;;;;;;5089260;28;20440;-75
2022/07/23 04:22:15;;;;;;;10.55;8.18;;;26.40;96.70;;;;;;5079749;28;20456;-75
2022/07/23 04:24:43;;;;;;;9.38;7.85;;;26.40;96.70;;;;;;5096775;28;20052;-76
2022/07/23 04:27:11;;;;;;;9.95;8.32;;;26.40;96.70;;;;;;5071876;28;20051;-76
2022/07/23 04:29:40;;;;;;;9.38;8.13;;;26.50;96.70;;;;;;5078114;28;20051;-76
2022/07/23 04:32:10;;;;;;;13.80;8.93;;;26.50;96.70;;;;;;5087297;28;20048;-76
2022/07/23 04:34:38;;;;;;;14.30;9.98;;;26.50;96.70;;;;;;5095014;28;20044;-76
2022/07/23 04:37:07;;;;;;;22.13;15.05;;;26.50;96.70;;;;;;5069728;28;20071;-76
2022/07/23 04:39:36;;;;;;;20.13;16.63;;;26.60;96.70;;;;;;5092252;28;20097;-76
2022/07/23 04:42:05;;;;;;;18.00;14.15;;;26.50;96.70;;;;;;5088399;28;20051;-76
2022/07/23 04:44:33;;;;;;;17.35;13.77;;;26.50;96.70;;;;;;5093312;28;20414;-75
2022/07/23 04:47:03;;;;;;;14.88;13.38;;;26.40;96.70;;;;;;5071305;28;20536;-76
2022/07/23 04:49:34;;;;;;;14.32;12.82;;;26.40;96.70;;;;;;5087444;28;20044;-76
2022/07/23 04:52:03;;;;;;;12.85;11.45;;;26.50;96.70;;;;;;5072947;28;20072;-75
2022/07/23 04:54:32;;;;;;;12.45;11.15;;;26.60;96.70;;;;;;5070978;28;20047;-76
2022/07/23 04:57:00;;;;;;;14.02;10.23;;;26.60;96.70;;;;;;5074431;28;20179;-76
2022/07/23 04:59:28;;;;;;;12.27;10.65;;;26.60;96.70;;;;;;5084938;28;20043;-76
2022/07/23 05:02:01;;;;;;;11.88;10.60;;;26.70;96.70;;;;;;5085149;28;20044;-76
2022/07/23 05:04:31;;;;;;;10.60;9.55;;;26.60;96.70;;;;;;5071742;28;20078;-75
2022/07/23 05:07:00;;;;;;;13.30;10.68;;;26.60;96.70;;;;;;5113072;27;20135;-75
2022/07/23 05:09:29;;;;;;;15.20;10.52;;;26.60;96.70;;;;;;5069770;28;20289;-75
2022/07/23 05:11:57;;;;;;;13.75;10.07;;;26.50;96.70;;;;;;5091918;28;20058;-75
2022/07/23 05:14:27;;;;;;;12.38;9.35;;;26.50;96.70;;;;;;5087576;28;20089;-76
2022/07/23 05:16:55;;;;;;;12.68;10.45;;;26.50;96.70;;;;;;5090483;28;20550;-76
2022/07/23 05:19:24;;;;;;;12.00;9.43;;;26.50;96.70;;;;;;5088721;28;20101;-74
2022/07/23 05:21:53;;;;;;;11.32;9.52;;;26.60;96.70;;;;;;5087145;28;20052;-74
2022/07/23 05:24:24;;;;;;;12.40;9.18;;;26.60;96.70;;;;;;5088516;28;20093;-74
2022/07/23 05:26:52;;;;;;;10.88;9.65;;;26.60;96.70;;;;;;5085612;28;20066;-75
2022/07/23 05:29:22;;;;;;;11.25;9.77;;;26.60;96.70;;;;;;5082336;28;20067;-74
2022/07/23 05:31:50;;;;;;;10.10;8.50;;;26.60;96.70;;;;;;5075346;28;20514;-74
2022/07/23 05:34:18;;;;;;;10.35;8.63;;;26.60;96.70;;;;;;5088657;28;20043;-74
2022/07/23 05:36:48;;;;;;;15.13;9.15;;;26.70;96.70;;;;;;5078745;28;20105;-75
2022/07/23 05:39:17;;;;;;;12.85;8.90;;;26.70;96.70;;;;;;5088487;28;20044;-73
2022/07/23 05:41:47;;;;;;;11.00;8.48;;;26.70;96.70;;;;;;5074918;28;20127;-74
2022/07/23 05:44:15;;;;;;;10.95;8.73;;;26.80;96.70;;;;;;5088175;28;20057;-73
2022/07/23 05:46:44;;;;;;;13.40;8.43;;;26.80;96.70;;;;;;5085184;28;20501;-75
2022/07/23 05:49:19;;;;;;;11.02;8.43;;;26.90;96.70;;;;;;5083859;28;20058;-74
2022/07/23 05:52:06;;;;;;;11.75;9.32;;;27.00;96.70;;;;;;5088282;28;20113;-77
2022/07/23 05:55:02;;;;;;;12.38;9.10;;;27.10;96.70;;;;;;5088159;28;20505;-74
2022/07/23 05:57:32;;;;;;;11.10;8.32;;;27.10;96.70;;;;;;5084849;28;20058;-75
2022/07/23 06:00:01;;;;;;;11.00;8.48;;;27.30;96.70;;;;;;5091004;28;20142;-74
2022/07/23 06:02:29;;;;;;;10.85;7.95;;;27.30;96.70;;;;;;5084414;28;20075;-74
2022/07/23 06:04:57;;;;;;;10.35;8.40;;;27.30;96.70;;;;;;5076983;28;20051;-74
2022/07/23 06:07:30;;;;;;;11.85;8.55;;;27.40;96.70;;;;;;5085778;28;20051;-75
2022/07/23 06:09:58;;;;;;;9.73;8.13;;;27.40;96.70;;;;;;5075843;28;20462;-76
2022/07/23 06:12:26;;;;;;;9.50;8.50;;;27.40;96.70;;;;;;5085393;28;20424;-76
2022/07/23 06:14:56;;;;;;;8.98;8.07;;;27.50;96.70;;;;;;5097726;28;20067;-76
2022/07/23 06:17:24;;;;;;;8.88;7.18;;;27.60;96.70;;;;;;5082699;28;20044;-76
2022/07/23 06:19:53;;;;;;;17.08;8.10;;;27.60;96.70;;;;;;5087290;28;20131;-76
2022/07/23 06:22:21;;;;;;;9.55;8.25;;;27.70;96.70;;;;;;5086033;28;20044;-76
2022/07/23 06:24:51;;;;;;;11.38;8.25;;;27.70;96.70;;;;;;5092366;28;20465;-75
2022/07/23 06:27:21;;;;;;;9.90;7.57;;;27.60;96.70;;;;;;5085339;28;20069;-75
2022/07/23 06:29:55;;;;;;;11.27;7.72;;;27.70;96.70;;;;;;5085574;28;20052;-75
2022/07/23 06:32:23;;;;;;;11.73;8.05;;;27.70;96.70;;;;;;5084725;28;20135;-75
2022/07/23 06:34:53;;;;;;;9.60;8.05;;;27.80;96.70;;;;;;5087574;28;20044;-75
2022/07/23 06:37:22;;;;;;;9.93;7.68;;;27.80;96.70;;;;;;5084128;28;20061;-75
2022/07/23 06:39:51;;;;;;;9.30;8.10;;;27.80;96.70;;;;;;5087651;28;20050;-75
2022/07/23 06:42:20;;;;;;;9.07;7.85;;;27.80;96.70;;;;;;5076021;28;20120;-75
2022/07/23 06:44:59;;;;;;;11.98;7.88;;;27.90;96.70;;;;;;5087407;28;20044;-74
2022/07/23 06:47:28;;;;;;;8.88;7.97;;;27.90;96.70;;;;;;5086349;28;20054;-75
2022/07/23 06:49:56;;;;;;;9.43;7.80;;;28.00;96.70;;;;;;5090595;28;20071;-74
2022/07/23 06:52:26;;;;;;;11.40;7.88;;;28.10;96.70;;;;;;5090739;28;20060;-74
2022/07/23 06:54:54;;;;;;;11.18;8.20;;;28.20;96.70;;;;;;5090822;28;20109;-75
2022/07/23 06:57:23;;;;;;;9.23;8.15;;;28.10;96.70;;;;;;5073944;28;20048;-74
2022/07/23 06:59:51;;;;;;;10.05;8.30;;;28.20;96.70;;;;;;5068862;28;20040;-74
2022/07/23 07:02:24;;;;;;;10.15;8.05;;;28.30;96.70;;;;;;5089134;28;20078;-74
2022/07/23 07:04:56;;;;;;;9.18;7.68;;;28.30;96.70;;;;;;5102722;28;20044;-73
2022/07/23 07:07:31;;;;;;;9.32;8.02;;;28.40;96.70;;;;;;5094056;28;20044;-74
2022/07/23 07:09:59;;;;;;;12.43;9.15;;;28.50;96.70;;;;;;5087630;28;20027;-74
2022/07/23 07:12:27;;;;;;;10.40;8.40;;;28.50;96.70;;;;;;5090863;28;20044;-73
2022/07/23 07:14:57;;;;;;;10.98;8.77;;;28.50;96.70;;;;;;5070178;28;20470;-74
2022/07/23 07:17:26;;;;;;;9.25;8.10;;;28.50;96.70;;;;;;5086711;28;20041;-75
2022/07/23 07:19:54;;;;;;;9.60;8.38;;;28.60;96.70;;;;;;5060312;28;20044;-74
2022/07/23 07:22:22;;;;;;;8.98;8.02;;;28.70;96.70;;;;;;5074246;28;20080;-75
2022/07/23 07:24:50;;;;;;;11.52;7.88;;;28.60;96.70;;;;;;5089075;28;20046;-74
2022/07/23 07:27:18;;;;;;;8.43;7.38;;;28.60;96.70;;;;;;5067507;28;20134;-73
2022/07/23 07:29:46;;;;;;;11.75;8.23;;;28.60;96.70;;;;;;5069087;28;20046;-72
2022/07/23 07:32:19;;;;;;;9.60;8.43;;;28.60;96.70;;;;;;5082315;28;20059;-72
2022/07/23 07:35:10;;;;;;;12.13;8.45;;;28.60;96.70;;;;;;5082137;28;20055;-75
2022/07/23 07:37:38;;;;;;;11.82;8.32;;;28.70;96.70;;;;;;5067564;28;20051;-72
2022/07/23 07:40:07;;;;;;;8.65;7.88;;;28.70;96.70;;;;;;5074557;28;20576;-71
2022/07/23 07:42:44;;;;;;;10.25;7.93;;;28.80;96.70;;;;;;5085864;28;20052;-72
2022/07/23 07:45:12;;;;;;;10.88;7.45;;;28.90;96.70;;;;;;5095091;28;20044;-72
2022/07/23 07:47:40;;;;;;;12.30;8.40;;;29.00;96.70;;;;;;5084718;28;20051;-74
2022/07/23 07:50:10;;;;;;;10.20;8.02;;;29.00;96.70;;;;;;5080181;28;20470;-74
2022/07/23 07:52:39;;;;;;;10.02;8.05;;;29.10;96.70;;;;;;5091171;28;20580;-74
2022/07/23 07:55:09;;;;;;;14.55;10.43;;;29.10;96.70;;;;;;5080434;28;20040;-74
2022/07/23 07:57:38;;;;;;;16.85;12.63;;;29.10;96.70;;;;;;5084747;28;20541;-74
2022/07/23 08:00:09;;;;;;;10.93;7.93;;;29.20;96.70;;;;;;5090287;28;20047;-75
2022/07/23 08:02:41;;;;;;;11.13;7.93;;;29.30;96.70;;;;;;5089743;28;20115;-74
2022/07/23 08:05:12;;;;;;;10.02;7.78;;;29.20;96.70;;;;;;5083500;28;20059;-74
2022/07/23 08:07:40;;;;;;;11.07;8.23;;;29.20;96.70;;;;;;5086374;28;20036;-75
2022/07/23 08:10:09;;;;;;;9.38;7.75;;;29.20;96.70;;;;;;5087964;28;20722;-77
2022/07/23 08:12:44;;;;;;;9.50;8.50;;;29.20;96.70;;;;;;5088377;28;20406;-75
2022/07/23 08:15:13;;;;;;;11.13;8.30;;;29.30;96.70;;;;;;5082628;28;20067;-74
2022/07/23 08:17:42;;;;;;;15.07;11.43;;;29.40;96.70;;;;;;5081244;28;20040;-74
2022/07/23 08:20:14;;;;;;;11.02;7.90;;;29.60;96.70;;;;;;5094429;28;20054;-74
2022/07/23 08:22:46;;;;;;;10.93;7.80;;;29.70;96.70;;;;;;5067903;28;20048;-74
2022/07/23 08:25:15;;;;;;;8.23;7.53;;;29.80;96.70;;;;;;5091775;28;20528;-74
2022/07/23 08:27:44;;;;;;;9.80;8.80;;;29.70;96.70;;;;;;5088955;28;20407;-74
2022/07/23 08:30:12;;;;;;;11.48;7.57;;;29.80;96.70;;;;;;5084280;28;20089;-73
2022/07/23 08:32:51;;;;;;;8.85;7.95;;;29.80;96.70;;;;;;5087913;28;20056;-75
2022/07/23 08:35:28;;;;;;;10.00;7.55;;;29.80;96.70;;;;;;5081983;28;20506;-74
2022/07/23 08:37:57;;;;;;;11.18;8.25;;;29.90;96.70;;;;;;5072563;28;20589;-75
2022/07/23 08:40:27;;;;;;;9.82;8.00;;;29.80;96.70;;;;;;5084806;28;20054;-74
2022/07/23 08:42:55;;;;;;;8.52;7.72;;;29.80;96.70;;;;;;5090028;28;20156;-74
2022/07/23 08:45:26;;;;;;;13.68;8.50;;;29.90;96.70;;;;;;5085499;28;20047;-74
2022/07/23 08:47:56;;;;;;;13.05;8.07;;;29.90;96.70;;;;;;5084715;28;20044;-75
2022/07/23 08:50:26;;;;;;;8.88;8.02;;;29.90;96.70;;;;;;5080783;28;20089;-75
2022/07/23 08:52:56;;;;;;;8.57;7.50;;;29.90;96.70;;;;;;5080997;28;20036;-75
2022/07/23 08:55:25;;;;;;;8.15;7.35;;;30.10;96.70;;;;;;5077918;28;20036;-73
2022/07/23 08:57:54;;;;;;;8.20;7.35;;;30.20;96.70;;;;;;5089292;28;20097;-73
2022/07/23 09:00:23;;;;;;;8.20;7.40;;;30.30;96.70;;;;;;5086072;28;20047;-77
2022/07/23 09:02:52;;;;;;;10.60;7.35;;;30.40;96.70;;;;;;5085031;28;20036;-72
2022/07/23 09:05:21;;;;;;;9.25;7.63;;;30.40;96.70;;;;;;5084297;28;20121;-73
2022/07/23 09:08:08;;;;;;;8.63;7.47;;;30.50;96.70;;;;;;5085402;28;20075;-73
2022/07/23 09:10:52;;;;;;;10.23;7.40;;;30.60;96.70;;;;;;5081920;28;20096;-73
2022/07/23 09:13:33;;;;;;;11.32;7.30;;;30.60;96.70;;;;;;5082351;28;20444;-74
2022/07/23 09:16:05;;;;;;;9.00;7.15;;;30.70;96.70;;;;;;5086322;28;20485;-79
2022/07/23 09:18:44;;;;;;;10.38;6.85;;;30.70;96.70;;;;;;5081948;28;20064;-75
2022/07/23 09:21:14;;;;;;;12.30;7.32;;;30.90;96.70;;;;;;5091618;28;20051;-74
2022/07/23 09:23:47;;;;;;;16.80;7.03;;;30.90;96.70;;;;;;5087200;28;20094;-76
2022/07/23 09:26:31;;;;;;;7.63;6.35;;;30.90;96.70;;;;;;5086012;28;20047;-76
2022/07/23 09:29:05;;;;;;;8.57;7.03;;;31.00;96.70;;;;;;5085843;28;20054;-74
2022/07/23 09:31:43;;;;;;;9.45;6.82;;;31.20;96.70;;;;;;5085246;28;20163;-76
2022/07/23 09:34:16;;;;;;;8.45;7.13;;;31.30;96.70;;;;;;5080384;28;20634;-75
2022/07/23 09:36:50;;;;;;;7.35;6.10;;;31.30;96.70;;;;;;5076402;28;20052;-74
2022/07/23 09:39:28;;;;;;;7.32;6.05;;;31.30;96.70;;;;;;5066252;28;20143;-77
2022/07/23 09:41:57;;;;;;;7.85;6.43;;;31.30;96.70;;;;;;5086469;28;20044;-78
2022/07/23 09:44:26;;;;;;;7.10;6.35;;;31.30;96.70;;;;;;5082467;28;20111;-78
2022/07/23 09:47:00;;;;;;;7.10;5.97;;;31.30;96.70;;;;;;5083186;28;20047;-78
2022/07/23 09:49:29;;;;;;;7.95;6.05;;;31.40;96.70;;;;;;5083424;28;20446;-78
2022/07/23 09:51:59;;;;;;;7.03;5.97;;;31.50;96.70;;;;;;5082689;28;20501;-79
2022/07/23 09:54:34;;;;;;;6.65;5.80;;;31.60;96.70;;;;;;5085889;28;20132;-78
2022/07/23 09:57:06;;;;;;;6.78;5.90;;;31.60;96.70;;;;;;5085530;28;20136;-81
2022/07/23 09:59:37;;;;;;;9.07;5.63;;;31.70;96.70;;;;;;5088262;28;20056;-80
2022/07/23 10:02:07;;;;;;;7.22;5.38;;;31.90;96.70;;;;;;5081563;28;20044;-79
2022/07/23 10:17:51;;;;;;;6.47;5.72;;;32.50;96.70;;;;;;5081205;28;20110;-79
2022/07/23 10:20:21;;;;;;;9.75;5.70;;;32.30;96.70;;;;;;5088146;28;20051;-82
2022/07/23 10:22:58;;;;;;;7.93;5.80;;;32.50;96.70;;;;;;5079096;28;20520;-81
2022/07/23 10:25:32;;;;;;;7.03;5.93;;;32.60;96.70;;;;;;5079932;28;20048;-79
2022/07/23 10:28:43;;;;;;;6.15;5.55;;;32.70;96.70;;;;;;5085586;28;20436;-78
2022/07/23 10:31:28;;;;;;;7.03;5.57;;;32.80;96.70;;;;;;5060646;28;20044;-79
2022/07/23 10:34:24;;;;;;;6.80;5.50;;;32.80;96.70;;;;;;5095739;28;20048;-78
2022/07/23 10:36:57;;;;;;;6.35;5.32;;;32.90;96.70;;;;;;5081890;28;20055;-77
2022/07/23 10:39:30;;;;;;;6.38;5.72;;;33.00;96.70;;;;;;5083831;28;20067;-83
2022/07/23 10:42:09;;;;;;;5.93;5.28;;;32.90;96.70;;;;;;5082837;28;20401;-79
2022/07/23 10:44:43;;;;;;;5.22;4.45;;;33.10;96.70;;;;;;5086221;28;20051;-80
2022/07/23 10:47:30;;;;;;;6.97;4.28;;;33.20;96.70;;;;;;5080952;28;20047;-82
2022/07/23 10:50:18;;;;;;;6.03;4.28;;;33.30;96.70;;;;;;5081272;28;20072;-80
2022/07/23 10:53:08;;;;;;;6.50;4.30;;;33.50;96.70;;;;;;5085283;28;20044;-80
2022/07/23 10:55:42;;;;;;;5.97;4.90;;;33.40;96.70;;;;;;5076885;28;20056;-80
2022/07/23 10:58:11;;;;;;;5.22;4.40;;;33.40;96.70;;;;;;5090244;28;20050;-79
2022/07/23 11:00:39;;;;;;;6.63;4.07;;;33.40;96.70;;;;;;5081182;28;20036;-79
2022/07/23 11:03:32;;;;;;;6.75;4.60;;;33.50;96.70;;;;;;5085315;28;20064;-80
2022/07/23 11:06:02;;;;;;;6.43;4.25;;;33.60;96.70;;;;;;5084215;28;20063;-80
2022/07/23 11:08:30;;;;;;;3.78;3.40;;;33.80;96.70;;;;;;5080002;28;20710;-76
2022/07/23 11:11:12;;;;;;;5.32;3.65;;;33.80;96.70;;;;;;5071177;28;20214;-75
2022/07/23 11:13:45;;;;;;;4.78;3.95;;;33.70;96.70;;;;;;5084217;28;20927;-79
2022/07/23 11:16:19;;;;;;;4.78;4.15;;;33.80;96.70;;;;;;5089174;28;20040;-79
2022/07/23 11:19:05;;;;;;;5.95;3.92;;;33.90;96.70;;;;;;5084192;28;20044;-77
2022/07/23 11:21:59;;;;;;;5.80;3.60;;;33.80;96.70;;;;;;5084483;28;20075;-78
2022/07/23 11:24:28;;;;;;;4.88;3.97;;;33.80;96.70;;;;;;5074478;28;20095;-78
2022/07/23 11:27:01;;;;;;;3.88;3.38;;;34.00;96.70;;;;;;5086473;28;20401;-78
2022/07/23 11:29:48;;;;;;;6.50;3.30;;;34.00;96.70;;;;;;5061984;28;20044;-83
2022/07/23 11:32:38;;;;;;;4.85;3.47;;;34.00;96.70;;;;;;5076229;28;20084;-83
2022/07/23 11:35:25;;;;;;;3.65;3.35;;;34.20;96.70;;;;;;5059409;28;20087;-83
2022/07/23 11:38:04;;;;;;;3.47;2.78;;;34.30;96.70;;;;;;5082446;28;20765;-81
2022/07/23 11:40:33;;;;;;;6.13;3.83;;;34.30;96.70;;;;;;5081723;28;20071;-82
2022/07/23 11:43:03;;;;;;;8.30;3.97;;;34.50;96.70;;;;;;5082864;28;20071;-83
2022/07/23 11:45:33;;;;;;;6.75;3.50;;;34.60;96.70;;;;;;5083815;28;20135;-81
2022/07/23 11:48:02;;;;;;;4.07;3.50;;;34.60;96.60;;;;;;5060647;28;20068;-83
2022/07/23 11:50:31;;;;;;;8.90;3.63;;;34.70;96.70;;;;;;5083061;28;20134;-82
2022/07/23 11:53:01;;;;;;;5.68;3.22;;;34.70;96.40;;;;;;5068881;28;20074;-84
2022/07/23 11:55:30;;;;;;;6.82;3.58;;;34.80;96.60;;;;;;5087207;28;20060;-83
2022/07/23 11:57:59;;;;;;;5.85;2.83;;;34.90;95.70;;;;;;5079737;28;20037;-83
2022/07/23 12:00:29;;;;;;;7.10;3.55;;;35.10;94.10;;;;;;5083667;28;20062;-81
2022/07/23 12:03:00;;;;;;;8.63;3.67;;;35.10;91.90;;;;;;5082132;28;20055;-82
2022/07/23 12:05:32;;;;;;;4.05;3.00;;;35.20;92.40;;;;;;5080622;28;20040;-84
2022/07/23 12:08:04;;;;;;;3.50;2.63;;;35.10;93.90;;;;;;5069602;28;20040;-84
2022/07/23 12:10:35;;;;;;;4.70;3.03;;;35.10;88.60;;;;;;5073267;28;20053;-84
2022/07/23 12:13:05;;;;;;;5.50;3.15;;;35.20;88.50;;;;;;5073547;28;20075;-84
2022/07/23 12:15:38;;;;;;;5.20;2.90;;;35.30;91.80;;;;;;5086583;28;20047;-86
2022/07/23 12:18:07;;;;;;;5.57;2.75;;;35.10;90.80;;;;;;5082320;28;20040;-79
2022/07/23 12:20:37;;;;;;;5.15;2.83;;;34.90;89.30;;;;;;5091208;28;20050;-78
2022/07/23 12:23:08;;;;;;;22.48;3.97;;;35.10;91.10;;;;;;5082668;28;20040;-78
2022/07/23 12:25:39;;;;;;;5.97;3.33;;;35.10;92.40;;;;;;5079749;28;20102;-79
2022/07/23 12:28:10;;;;;;;5.35;3.00;;;35.10;93.20;;;;;;5065945;28;20095;-80
2022/07/23 12:30:39;;;;;;;5.30;3.38;;;35.20;94.60;;;;;;5063566;28;20044;-81
2022/07/23 12:33:10;;;;;;;4.63;3.08;;;35.10;92.80;;;;;;5080949;28;20061;-81
2022/07/23 12:35:41;;;;;;;3.50;3.20;;;35.00;90.00;;;;;;5069836;28;20114;-78
2022/07/23 12:38:13;;;;;;;6.88;3.58;;;35.20;93.30;;;;;;5091411;28;20435;-79
2022/07/23 12:40:46;;;;;;;7.68;3.47;;;35.10;94.90;;;;;;5068808;28;20453;-78
2022/07/23 12:43:21;;;;;;;3.67;3.33;;;35.20;92.50;;;;;;5087895;28;20059;-79
2022/07/23 12:45:52;;;;;;;4.38;3.65;;;35.40;92.40;;;;;;5083593;28;20571;-80
2022/07/23 12:48:25;;;;;;;4.85;3.47;;;35.30;94.70;;;;;;5082149;28;20060;-80
2022/07/23 12:50:56;;;;;;;6.47;3.60;;;35.50;94.30;;;;;;5060242;28;20052;-80
2022/07/23 12:53:29;;;;;;;6.57;3.05;;;35.40;94.00;;;;;;5086110;28;20354;-77
2022/07/23 12:56:03;;;;;;;3.80;3.40;;;35.40;94.00;;;;;;5083233;28;20170;-78
2022/07/23 12:58:45;;;;;;;6.25;3.95;;;35.60;93.80;;;;;;5086730;28;20182;-78
2022/07/23 13:01:27;;;;;;;3.97;3.65;;;35.40;95.90;;;;;;5083375;28;20118;-79
2022/07/23 13:04:03;;;;;;;38.15;7.32;;;35.50;95.40;;;;;;5090539;28;20047;-83
2022/07/23 13:06:41;;;;;;;4.97;3.95;;;35.60;95.60;;;;;;5093711;28;20548;-82
2022/07/23 13:09:14;;;;;;;10.18;4.20;;;35.70;96.30;;;;;;5069538;28;20044;-81
2022/07/23 13:11:43;;;;;;;6.03;4.45;;;35.70;95.80;;;;;;5089429;28;20101;-79
2022/07/23 13:14:12;;;;;;;8.20;6.40;;;35.70;95.00;;;;;;5086195;28;20032;-84
2022/07/23 13:16:41;;;;;;;6.68;4.20;;;35.90;95.20;;;;;;5085603;28;20047;-84